createdAt,value
2022-10-06T00:04:53.846Z,2.43
2022-10-06T00:09:56.464Z,2.83
2022-10-06T00:14:59.706Z,2.80
2022-10-06T00:20:02.696Z,2.57
2022-10-06T00:25:07.282Z,4.67
2022-10-06T00:30:12.446Z,2.33
2022-10-06T00:35:15.351Z,4.80
2022-10-06T00:40:18.792Z,3.47
2022-10-06T00:45:28.607Z,3.47
2022-10-06T00:50:32.666Z,2.40
2022-10-06T00:55:38.811Z,3.50
2022-10-06T01:00:43.053Z,3.43
2022-10-06T01:05:50.259Z,2.70
2022-10-06T01:10:53.033Z,4.43
2022-10-06T01:16:15.701Z,4.03
2022-10-06T01:21:47.472Z,5.03
2022-10-06T01:26:52.652Z,3.70
2022-10-06T01:31:55.639Z,4.73
2022-10-06T01:36:58.599Z,6.27
2022-10-06T01:42:03.145Z,4.47
2022-10-06T01:47:07.085Z,3.60
2022-10-06T01:52:10.298Z,5.63
2022-10-06T01:57:13.029Z,4.87
2022-10-06T02:02:15.949Z,5.40
2022-10-06T02:07:19.077Z,5.10
2022-10-06T02:12:22.997Z,5.60
2022-10-06T02:17:25.694Z,4.47
2022-10-06T02:22:28.756Z,5.20
2022-10-06T02:27:32.561Z,5.00
2022-10-06T02:32:39.036Z,5.83
2022-10-06T02:37:43.694Z,6.83
2022-10-06T02:42:50.470Z,5.20
2022-10-06T02:47:57.078Z,8.63
2022-10-06T02:52:59.981Z,5.00
2022-10-06T02:58:04.057Z,5.23
2022-10-06T03:03:07.803Z,6.17
2022-10-06T03:08:10.795Z,8.00
2022-10-06T03:13:14.055Z,5.50
2022-10-06T03:18:17.147Z,4.20
2022-10-06T03:23:20.293Z,6.93
2022-10-06T03:28:23.575Z,7.20
2022-10-06T03:33:26.669Z,5.87
2022-10-06T03:38:34.209Z,5.57
2022-10-06T03:43:38.429Z,7.60
2022-10-06T03:48:41.881Z,6.70
2022-10-06T03:53:48.138Z,6.93
2022-10-06T03:58:54.286Z,6.83
2022-10-06T04:03:59.716Z,6.63
2022-10-06T04:09:04.714Z,5.77
2022-10-06T04:14:13.849Z,8.70
2022-10-06T04:19:17.916Z,6.30
2022-10-06T04:24:26.532Z,7.87
2022-10-06T04:29:29.795Z,5.67
2022-10-06T04:34:33.749Z,7.43
2022-10-06T04:39:37.708Z,9.53
2022-10-06T04:44:40.691Z,10.80
2022-10-06T04:49:43.600Z,9.10
2022-10-06T04:54:46.502Z,7.93
2022-10-06T05:00:12.476Z,7.13
2022-10-06T05:05:18.019Z,6.37
2022-10-06T05:10:21.753Z,5.80
2022-10-06T05:15:24.778Z,5.83
2022-10-06T05:20:27.629Z,8.27
2022-10-06T05:25:30.439Z,7.17
2022-10-06T05:30:33.239Z,8.00
2022-10-06T05:35:35.985Z,6.10
2022-10-06T05:40:38.764Z,8.83
2022-10-06T05:45:41.697Z,7.87
2022-10-06T05:50:44.504Z,9.13
2022-10-06T05:55:47.357Z,8.53
2022-10-06T06:00:50.102Z,8.23
2022-10-06T06:05:53.005Z,9.63
2022-10-06T06:10:55.908Z,9.17
2022-10-06T06:16:04.316Z,7.07
2022-10-06T06:21:10.263Z,8.67
2022-10-06T06:26:17.186Z,9.23
2022-10-06T06:31:39.402Z,10.03
2022-10-06T06:36:46.847Z,8.27
2022-10-06T06:41:53.750Z,17.73
2022-10-06T06:47:24.460Z,8.53
2022-10-06T06:52:31.001Z,9.70
2022-10-06T06:57:34.087Z,7.43
2022-10-06T07:02:37.160Z,7.27
2022-10-06T07:07:40.478Z,10.77
2022-10-06T07:12:45.902Z,11.33
2022-10-06T07:18:07.150Z,9.33
2022-10-06T07:23:36.968Z,9.27
2022-10-06T07:28:42.954Z,8.23
2022-10-06T07:33:47.601Z,10.00
2022-10-06T07:38:50.390Z,11.33
2022-10-06T07:43:56.353Z,7.37
2022-10-06T07:49:02.224Z,9.57
2022-10-06T07:54:06.934Z,6.83
2022-10-06T07:59:27.997Z,10.47
2022-10-06T08:04:30.584Z,9.47
2022-10-06T08:09:33.351Z,10.07
2022-10-06T08:14:36.177Z,10.60
2022-10-06T08:19:38.866Z,7.30
2022-10-06T08:25:08.374Z,8.00
2022-10-06T08:30:07.280Z,11.33
2022-10-06T08:35:11.114Z,14.07
2022-10-06T08:40:14.989Z,8.60
2022-10-06T08:45:23.991Z,7.50
2022-10-06T08:50:29.130Z,8.13
2022-10-06T08:55:45.101Z,6.47
2022-10-06T09:00:47.812Z,11.23
2022-10-06T09:06:00.868Z,8.53
2022-10-06T09:11:16.300Z,5.77
2022-10-06T09:16:28.150Z,7.27
2022-10-06T09:21:39.797Z,9.03
2022-10-06T09:26:45.398Z,7.43
2022-10-06T09:31:50.788Z,8.63
2022-10-06T09:37:10.987Z,8.87
2022-10-06T09:42:29.641Z,7.73
2022-10-06T09:47:43.175Z,8.67
2022-10-06T09:52:59.049Z,7.70
2022-10-06T09:58:02.288Z,5.13
2022-10-06T10:03:08.397Z,6.40
2022-10-06T10:08:14.157Z,7.23
2022-10-06T10:13:26.045Z,10.00
2022-10-06T10:18:31.469Z,8.90
2022-10-06T10:23:36.416Z,7.03
2022-10-06T10:28:55.317Z,7.20
2022-10-06T10:34:23.537Z,5.60
2022-10-06T10:39:33.795Z,6.63
2022-10-06T10:44:47.998Z,5.70
2022-10-06T10:50:00.581Z,9.03
2022-10-06T10:55:11.535Z,5.70
2022-10-06T11:00:23.405Z,5.10
2022-10-06T11:05:35.123Z,5.13
2022-10-06T11:10:51.525Z,7.53
2022-10-06T11:16:34.577Z,4.50
2022-10-06T11:21:52.403Z,4.93
2022-10-06T11:27:09.572Z,4.87
2022-10-06T11:32:12.816Z,4.83
2022-10-06T11:37:47.191Z,3.60
2022-10-06T11:43:17.628Z,4.67
2022-10-06T11:48:38.318Z,5.27
2022-10-06T11:53:42.500Z,4.03
2022-10-06T11:58:51.678Z,4.07
2022-10-06T12:04:18.532Z,4.57
2022-10-06T12:10:14.387Z,2.97
2022-10-06T12:21:08.956Z,2.70
2022-10-06T12:26:55.483Z,2.90
2022-10-06T12:32:42.291Z,4.50
2022-10-06T12:37:54.543Z,4.73
2022-10-06T12:43:14.242Z,3.70
2022-10-06T12:48:24.582Z,4.53
2022-10-06T12:53:36.896Z,4.07
2022-10-06T12:58:40.567Z,3.03
2022-10-06T13:03:48.326Z,3.37
2022-10-06T13:09:14.570Z,2.90
2022-10-06T13:14:17.334Z,3.93
2022-10-06T13:19:27.115Z,3.70
2022-10-06T13:24:29.946Z,3.23
2022-10-06T13:29:32.611Z,3.00
2022-10-06T13:34:42.987Z,3.23
2022-10-06T13:39:46.145Z,3.10
2022-10-06T13:45:15.085Z,2.33
2022-10-06T13:50:19.963Z,2.57
2022-10-06T13:55:28.499Z,3.37
2022-10-06T14:00:33.507Z,2.77
2022-10-06T14:05:46.309Z,4.10
2022-10-06T14:10:57.638Z,2.40
2022-10-06T14:16:09.426Z,3.47
2022-10-06T14:21:44.873Z,2.53
2022-10-06T14:26:54.825Z,2.90
2022-10-06T14:32:09.209Z,3.53
2022-10-06T14:37:17.976Z,4.73
2022-10-06T14:42:24.168Z,3.00
2022-10-06T14:47:26.978Z,3.07
2022-10-06T14:52:29.686Z,2.93
2022-10-06T14:57:32.376Z,3.93
2022-10-06T15:02:35.538Z,3.63
2022-10-06T15:07:57.065Z,3.20
2022-10-06T15:12:59.875Z,5.70
2022-10-06T15:18:03.568Z,3.57
2022-10-06T15:23:06.261Z,4.23
2022-10-06T15:28:31.846Z,3.47
2022-10-06T15:33:36.528Z,5.03
2022-10-06T15:38:39.382Z,4.07
2022-10-06T15:43:57.584Z,6.30
2022-10-06T15:49:03.728Z,2.77
2022-10-06T15:54:06.591Z,4.00
2022-10-06T15:59:11.471Z,4.63
2022-10-06T16:04:27.296Z,4.87
2022-10-06T16:09:32.457Z,4.10
2022-10-06T16:14:35.966Z,5.60
2022-10-06T16:19:40.211Z,4.10
2022-10-06T16:24:43.081Z,6.73
2022-10-06T16:29:45.938Z,4.43
2022-10-06T16:34:50.545Z,4.47
2022-10-06T16:39:53.300Z,4.20
2022-10-06T16:44:55.983Z,4.67
2022-10-06T16:49:59.879Z,3.63
2022-10-06T16:55:02.758Z,3.70
2022-10-06T17:00:05.828Z,5.63
2022-10-06T17:05:08.864Z,4.90
2022-10-06T17:10:26.334Z,6.07
2022-10-06T17:15:33.375Z,7.77
2022-10-06T17:20:36.477Z,7.50
2022-10-06T17:25:39.252Z,7.87
2022-10-06T17:30:51.809Z,8.63
2022-10-06T17:35:54.545Z,6.43
2022-10-06T17:40:57.225Z,7.03
2022-10-06T17:46:04.193Z,6.53
2022-10-06T17:51:08.689Z,7.10
2022-10-06T17:56:12.054Z,6.80
2022-10-06T18:01:18.925Z,8.27
2022-10-06T18:06:24.188Z,8.50
2022-10-06T18:11:43.503Z,10.60
2022-10-06T18:16:55.721Z,9.67
2022-10-06T18:22:01.886Z,8.57
2022-10-06T18:27:06.281Z,10.40
2022-10-06T18:33:26.883Z,15.90
2022-10-06T18:37:31.989Z,13.07
2022-10-06T18:42:34.625Z,6.37
2022-10-06T18:47:56.022Z,7.73
2022-10-06T18:52:58.838Z,8.60
2022-10-06T18:58:01.935Z,6.87
2022-10-06T19:03:05.320Z,8.60
2022-10-06T19:08:09.305Z,8.53
2022-10-06T19:13:12.330Z,8.03
2022-10-06T19:18:15.102Z,8.37
2022-10-06T19:23:17.879Z,9.20
2022-10-06T19:28:20.663Z,7.73
2022-10-06T19:33:23.549Z,7.23
2022-10-06T19:38:27.363Z,7.97
2022-10-06T19:43:30.574Z,5.10
2022-10-06T19:48:33.371Z,8.07
2022-10-06T19:53:36.138Z,8.03
2022-10-06T19:58:38.958Z,6.23
2022-10-06T20:03:42.376Z,6.03
2022-10-06T20:08:45.257Z,5.83
2022-10-06T20:13:49.037Z,4.17
2022-10-06T20:18:51.720Z,7.37
2022-10-06T20:23:57.921Z,6.53
2022-10-06T20:29:02.966Z,5.00
2022-10-06T20:34:08.210Z,5.10
2022-10-06T20:39:36.039Z,5.40
2022-10-06T20:44:38.682Z,5.93
2022-10-06T20:49:42.397Z,5.60
2022-10-06T20:54:45.206Z,9.57
2022-10-06T20:59:48.368Z,5.53
2022-10-06T21:04:51.096Z,5.57
2022-10-06T21:09:53.825Z,5.20
2022-10-06T21:14:56.781Z,6.97
2022-10-06T21:19:59.547Z,4.43
2022-10-06T21:25:02.327Z,5.00
2022-10-06T21:30:05.447Z,3.70
2022-10-06T21:35:08.719Z,5.80
2022-10-06T21:40:11.500Z,5.27
2022-10-06T21:45:14.362Z,5.30
2022-10-06T21:50:17.306Z,5.67
2022-10-06T21:55:20.027Z,7.30
2022-10-06T22:00:22.628Z,5.20
2022-10-06T22:05:25.332Z,7.20
2022-10-06T22:10:28.028Z,5.27
2022-10-06T22:15:30.686Z,8.30
2022-10-06T22:20:34.253Z,6.10
2022-10-06T22:25:36.832Z,8.70
2022-10-06T22:30:39.527Z,5.10
2022-10-06T22:35:51.583Z,5.30
2022-10-06T22:41:03.190Z,4.43
2022-10-06T22:46:07.338Z,4.60
2022-10-06T22:51:10.100Z,6.83
2022-10-06T22:56:13.043Z,7.13
2022-10-06T23:01:19.319Z,5.27
2022-10-06T23:06:22.156Z,6.47
2022-10-06T23:11:25.202Z,4.60
2022-10-06T23:16:27.896Z,6.00
2022-10-06T23:21:32.141Z,6.43
2022-10-06T23:26:34.866Z,6.27
2022-10-06T23:31:37.685Z,4.70
2022-10-06T23:36:40.307Z,5.30
2022-10-06T23:41:42.951Z,4.90
2022-10-06T23:46:45.556Z,5.57
2022-10-06T23:51:48.244Z,5.87
2022-10-06T23:56:52.953Z,2.90
